sensor_id;sensor_type;location;lat;lon;timestamp;P1;durP1;ratioP1;P2;durP2;ratioP2
6406;SDS011;3236;51.022;6.818;2023-10-13T00:00:25;13.68;;;6.45;;
6406;SDS011;3236;51.022;6.818;2023-10-13T00:02:54;11.93;;;6.82;;
6406;SDS011;3236;51.022;6.818;2023-10-13T00:05:25;10.88;;;6.45;;
6406;SDS011;3236;51.022;6.818;2023-10-13T00:07:55;11.32;;;6.35;;
6406;SDS011;3236;51.022;6.818;2023-10-13T00:10:27;18.00;;;6.47;;
6406;SDS011;3236;51.022;6.818;2023-10-13T00:12:54;19.30;;;6.78;;
6406;SDS011;3236;51.022;6.818;2023-10-13T00:15:31;10.13;;;6.78;;
6406;SDS011;3236;51.022;6.818;2023-10-13T00:18:03;13.93;;;6.60;;
6406;SDS011;3236;51.022;6.818;2023-10-13T00:20:37;12.98;;;6.93;;
6406;SDS011;3236;51.022;6.818;2023-10-13T00:23:05;13.18;;;6.45;;
6406;SDS011;3236;51.022;6.818;2023-10-13T00:25:34;11.60;;;7.35;;
6406;SDS011;3236;51.022;6.818;2023-10-13T00:28:08;14.20;;;7.63;;
6406;SDS011;3236;51.022;6.818;2023-10-13T00:30:36;14.85;;;8.38;;
6406;SDS011;3236;51.022;6.818;2023-10-13T00:33:06;12.70;;;7.53;;
6406;SDS011;3236;51.022;6.818;2023-10-13T00:35:37;16.10;;;8.05;;
6406;SDS011;3236;51.022;6.818;2023-10-13T00:38:09;17.80;;;8.82;;
6406;SDS011;3236;51.022;6.818;2023-10-13T00:40:40;16.13;;;7.53;;
6406;SDS011;3236;51.022;6.818;2023-10-13T00:43:10;15.60;;;8.50;;
6406;SDS011;3236;51.022;6.818;2023-10-13T00:45:56;14.52;;;7.95;;
6406;SDS011;3236;51.022;6.818;2023-10-13T00:48:33;15.98;;;9.23;;
6406;SDS011;3236;51.022;6.818;2023-10-13T00:51:07;14.65;;;9.18;;
6406;SDS011;3236;51.022;6.818;2023-10-13T00:53:43;16.40;;;8.85;;
6406;SDS011;3236;51.022;6.818;2023-10-13T00:56:14;14.88;;;8.65;;
6406;SDS011;3236;51.022;6.818;2023-10-13T00:58:44;17.00;;;8.20;;
6406;SDS011;3236;51.022;6.818;2023-10-13T01:01:15;15.35;;;8.98;;
6406;SDS011;3236;51.022;6.818;2023-10-13T01:03:46;19.23;;;8.80;;
6406;SDS011;3236;51.022;6.818;2023-10-13T01:06:16;20.13;;;9.50;;
6406;SDS011;3236;51.022;6.818;2023-10-13T01:08:44;16.35;;;9.05;;
6406;SDS011;3236;51.022;6.818;2023-10-13T01:11:17;18.02;;;7.80;;
6406;SDS011;3236;51.022;6.818;2023-10-13T01:13:44;18.83;;;9.40;;
6406;SDS011;3236;51.022;6.818;2023-10-13T01:16:22;19.10;;;8.60;;
6406;SDS011;3236;51.022;6.818;2023-10-13T01:18:51;14.98;;;8.63;;
6406;SDS011;3236;51.022;6.818;2023-10-13T01:21:24;17.95;;;8.93;;
6406;SDS011;3236;51.022;6.818;2023-10-13T01:23:54;18.70;;;8.80;;
6406;SDS011;3236;51.022;6.818;2023-10-13T01:26:21;16.13;;;7.97;;
6406;SDS011;3236;51.022;6.818;2023-10-13T01:28:49;18.95;;;8.63;;
6406;SDS011;3236;51.022;6.818;2023-10-13T01:31:22;17.58;;;8.32;;
6406;SDS011;3236;51.022;6.818;2023-10-13T01:33:56;15.13;;;8.45;;
6406;SDS011;3236;51.022;6.818;2023-10-13T01:36:25;17.42;;;8.82;;
6406;SDS011;3236;51.022;6.818;2023-10-13T01:38:54;16.40;;;9.18;;
6406;SDS011;3236;51.022;6.818;2023-10-13T01:41:30;19.85;;;9.18;;
6406;SDS011;3236;51.022;6.818;2023-10-13T01:43:59;14.98;;;8.63;;
6406;SDS011;3236;51.022;6.818;2023-10-13T01:46:27;13.30;;;8.52;;
6406;SDS011;3236;51.022;6.818;2023-10-13T01:48:53;14.73;;;9.00;;
6406;SDS011;3236;51.022;6.818;2023-10-13T01:51:22;19.38;;;9.00;;
6406;SDS011;3236;51.022;6.818;2023-10-13T01:53:55;20.00;;;8.93;;
6406;SDS011;3236;51.022;6.818;2023-10-13T01:56:23;17.90;;;8.40;;
6406;SDS011;3236;51.022;6.818;2023-10-13T01:58:50;16.48;;;9.00;;
6406;SDS011;3236;51.022;6.818;2023-10-13T02:01:18;16.98;;;8.80;;
6406;SDS011;3236;51.022;6.818;2023-10-13T02:03:51;15.48;;;8.80;;
6406;SDS011;3236;51.022;6.818;2023-10-13T02:06:28;20.52;;;9.57;;
6406;SDS011;3236;51.022;6.818;2023-10-13T02:08:59;25.75;;;9.75;;
6406;SDS011;3236;51.022;6.818;2023-10-13T02:11:36;19.38;;;9.27;;
6406;SDS011;3236;51.022;6.818;2023-10-13T02:14:03;15.00;;;8.70;;
6406;SDS011;3236;51.022;6.818;2023-10-13T02:16:30;17.25;;;9.38;;
6406;SDS011;3236;51.022;6.818;2023-10-13T02:18:56;19.73;;;9.50;;
6406;SDS011;3236;51.022;6.818;2023-10-13T02:21:29;16.35;;;9.35;;
6406;SDS011;3236;51.022;6.818;2023-10-13T02:23:57;17.48;;;9.82;;
6406;SDS011;3236;51.022;6.818;2023-10-13T02:26:30;17.65;;;9.30;;
6406;SDS011;3236;51.022;6.818;2023-10-13T02:28:57;17.38;;;9.60;;
6406;SDS011;3236;51.022;6.818;2023-10-13T02:31:31;21.08;;;9.13;;
6406;SDS011;3236;51.022;6.818;2023-10-13T02:33:58;18.20;;;9.38;;
6406;SDS011;3236;51.022;6.818;2023-10-13T02:36:26;23.35;;;9.98;;
6406;SDS011;3236;51.022;6.818;2023-10-13T02:39:01;18.25;;;9.02;;
6406;SDS011;3236;51.022;6.818;2023-10-13T02:41:34;17.38;;;9.10;;
6406;SDS011;3236;51.022;6.818;2023-10-13T02:44:02;18.25;;;9.20;;
6406;SDS011;3236;51.022;6.818;2023-10-13T02:46:31;18.38;;;8.90;;
6406;SDS011;3236;51.022;6.818;2023-10-13T02:49:00;14.82;;;9.82;;
6406;SDS011;3236;51.022;6.818;2023-10-13T02:51:34;21.02;;;9.85;;
6406;SDS011;3236;51.022;6.818;2023-10-13T02:54:01;22.02;;;9.45;;
6406;SDS011;3236;51.022;6.818;2023-10-13T02:56:37;20.23;;;9.82;;
6406;SDS011;3236;51.022;6.818;2023-10-13T02:59:06;21.70;;;11.00;;
6406;SDS011;3236;51.022;6.818;2023-10-13T03:01:36;19.42;;;9.95;;
6406;SDS011;3236;51.022;6.818;2023-10-13T03:04:03;19.95;;;11.43;;
6406;SDS011;3236;51.022;6.818;2023-10-13T03:06:34;18.88;;;10.77;;
6406;SDS011;3236;51.022;6.818;2023-10-13T03:09:01;18.45;;;10.07;;
6406;SDS011;3236;51.022;6.818;2023-10-13T03:11:41;19.63;;;10.07;;
6406;SDS011;3236;51.022;6.818;2023-10-13T03:14:08;23.35;;;10.70;;
6406;SDS011;3236;51.022;6.818;2023-10-13T03:16:48;23.48;;;10.32;;
6406;SDS011;3236;51.022;6.818;2023-10-13T03:19:15;20.88;;;11.52;;
6406;SDS011;3236;51.022;6.818;2023-10-13T03:21:44;31.17;;;11.00;;
6406;SDS011;3236;51.022;6.818;2023-10-13T03:24:12;18.75;;;9.82;;
6406;SDS011;3236;51.022;6.818;2023-10-13T03:26:41;21.23;;;11.13;;
6406;SDS011;3236;51.022;6.818;2023-10-13T03:29:16;23.52;;;10.65;;
6406;SDS011;3236;51.022;6.818;2023-10-13T03:31:47;18.15;;;9.85;;
6406;SDS011;3236;51.022;6.818;2023-10-13T03:34:28;22.35;;;11.48;;
6406;SDS011;3236;51.022;6.818;2023-10-13T03:36:55;23.13;;;11.65;;
6406;SDS011;3236;51.022;6.818;2023-10-13T03:39:23;27.50;;;11.52;;
6406;SDS011;3236;51.022;6.818;2023-10-13T03:41:57;25.25;;;11.13;;
6406;SDS011;3236;51.022;6.818;2023-10-13T03:44:30;19.25;;;10.25;;
6406;SDS011;3236;51.022;6.818;2023-10-13T03:47:03;29.20;;;10.95;;
6406;SDS011;3236;51.022;6.818;2023-10-13T03:49:43;27.15;;;10.77;;
6406;SDS011;3236;51.022;6.818;2023-10-13T03:52:10;22.90;;;11.25;;
6406;SDS011;3236;51.022;6.818;2023-10-13T03:54:39;25.08;;;11.02;;
6406;SDS011;3236;51.022;6.818;2023-10-13T03:57:07;25.55;;;11.65;;
6406;SDS011;3236;51.022;6.818;2023-10-13T03:59:37;27.92;;;12.10;;
6406;SDS011;3236;51.022;6.818;2023-10-13T04:02:05;23.52;;;11.70;;
6406;SDS011;3236;51.022;6.818;2023-10-13T04:04:43;18.88;;;10.80;;
6406;SDS011;3236;51.022;6.818;2023-10-13T04:10:04;22.77;;;11.05;;
6406;SDS011;3236;51.022;6.818;2023-10-13T04:13:00;19.92;;;10.57;;
6406;SDS011;3236;51.022;6.818;2023-10-13T04:15:50;19.55;;;10.20;;
6406;SDS011;3236;51.022;6.818;2023-10-13T04:18:59;22.95;;;11.68;;
6406;SDS011;3236;51.022;6.818;2023-10-13T04:21:34;20.95;;;10.40;;
6406;SDS011;3236;51.022;6.818;2023-10-13T04:24:22;19.25;;;10.73;;
6406;SDS011;3236;51.022;6.818;2023-10-13T04:27:07;20.38;;;10.65;;
6406;SDS011;3236;51.022;6.818;2023-10-13T04:30:02;19.20;;;10.23;;
6406;SDS011;3236;51.022;6.818;2023-10-13T04:32:42;18.20;;;10.90;;
6406;SDS011;3236;51.022;6.818;2023-10-13T04:35:31;26.05;;;11.48;;
6406;SDS011;3236;51.022;6.818;2023-10-13T04:38:02;25.23;;;10.98;;
6406;SDS011;3236;51.022;6.818;2023-10-13T04:40:43;29.05;;;12.18;;
6406;SDS011;3236;51.022;6.818;2023-10-13T04:43:24;23.75;;;11.52;;
6406;SDS011;3236;51.022;6.818;2023-10-13T04:45:59;28.50;;;11.63;;
6406;SDS011;3236;51.022;6.818;2023-10-13T04:48:41;22.67;;;11.10;;
6406;SDS011;3236;51.022;6.818;2023-10-13T04:51:15;24.63;;;11.73;;
6406;SDS011;3236;51.022;6.818;2023-10-13T04:53:58;22.45;;;11.32;;
6406;SDS011;3236;51.022;6.818;2023-10-13T04:56:37;22.98;;;11.30;;
6406;SDS011;3236;51.022;6.818;2023-10-13T04:59:24;20.27;;;10.98;;
6406;SDS011;3236;51.022;6.818;2023-10-13T05:02:25;19.00;;;10.77;;
6406;SDS011;3236;51.022;6.818;2023-10-13T05:05:09;22.17;;;10.68;;
6406;SDS011;3236;51.022;6.818;2023-10-13T05:07:47;27.88;;;11.60;;
6406;SDS011;3236;51.022;6.818;2023-10-13T05:10:33;26.05;;;11.13;;
6406;SDS011;3236;51.022;6.818;2023-10-13T05:13:19;26.40;;;11.48;;
6406;SDS011;3236;51.022;6.818;2023-10-13T05:16:04;24.45;;;11.05;;
6406;SDS011;3236;51.022;6.818;2023-10-13T05:18:50;23.40;;;11.25;;
6406;SDS011;3236;51.022;6.818;2023-10-13T05:21:35;24.83;;;11.20;;
6406;SDS011;3236;51.022;6.818;2023-10-13T05:24:20;22.92;;;11.38;;
6406;SDS011;3236;51.022;6.818;2023-10-13T05:27:04;21.85;;;11.23;;
6406;SDS011;3236;51.022;6.818;2023-10-13T05:29:49;26.88;;;11.43;;
6406;SDS011;3236;51.022;6.818;2023-10-13T05:32:33;25.35;;;12.32;;
6406;SDS011;3236;51.022;6.818;2023-10-13T05:35:20;24.45;;;11.60;;
6406;SDS011;3236;51.022;6.818;2023-10-13T05:38:05;24.00;;;11.70;;
6406;SDS011;3236;51.022;6.818;2023-10-13T05:40:52;32.20;;;11.52;;
6406;SDS011;3236;51.022;6.818;2023-10-13T05:43:37;25.63;;;12.27;;
6406;SDS011;3236;51.022;6.818;2023-10-13T05:46:22;26.90;;;11.88;;
6406;SDS011;3236;51.022;6.818;2023-10-13T05:49:07;25.80;;;11.70;;
6406;SDS011;3236;51.022;6.818;2023-10-13T05:52:11;30.80;;;12.48;;
6406;SDS011;3236;51.022;6.818;2023-10-13T05:55:01;24.15;;;11.48;;
6406;SDS011;3236;51.022;6.818;2023-10-13T05:57:45;25.13;;;12.18;;
6406;SDS011;3236;51.022;6.818;2023-10-13T06:00:29;22.88;;;11.85;;
6406;SDS011;3236;51.022;6.818;2023-10-13T06:03:14;26.50;;;12.00;;
6406;SDS011;3236;51.022;6.818;2023-10-13T06:05:59;23.67;;;11.25;;
6406;SDS011;3236;51.022;6.818;2023-10-13T06:08:44;20.52;;;11.85;;
6406;SDS011;3236;51.022;6.818;2023-10-13T06:11:28;27.38;;;11.27;;
6406;SDS011;3236;51.022;6.818;2023-10-13T06:14:13;24.13;;;11.68;;
6406;SDS011;3236;51.022;6.818;2023-10-13T06:16:58;27.67;;;12.57;;
6406;SDS011;3236;51.022;6.818;2023-10-13T06:19:42;25.02;;;11.25;;
6406;SDS011;3236;51.022;6.818;2023-10-13T06:22:27;32.60;;;12.05;;
6406;SDS011;3236;51.022;6.818;2023-10-13T06:25:16;22.35;;;11.43;;
6406;SDS011;3236;51.022;6.818;2023-10-13T06:28:01;25.20;;;10.65;;
6406;SDS011;3236;51.022;6.818;2023-10-13T06:30:53;23.55;;;10.52;;
6406;SDS011;3236;51.022;6.818;2023-10-13T06:33:22;26.30;;;13.13;;
6406;SDS011;3236;51.022;6.818;2023-10-13T06:35:54;23.63;;;11.98;;
6406;SDS011;3236;51.022;6.818;2023-10-13T06:38:23;23.50;;;10.68;;
6406;SDS011;3236;51.022;6.818;2023-10-13T06:40:57;20.38;;;11.63;;
6406;SDS011;3236;51.022;6.818;2023-10-13T06:43:24;23.00;;;11.30;;
6406;SDS011;3236;51.022;6.818;2023-10-13T06:45:57;21.52;;;10.65;;
6406;SDS011;3236;51.022;6.818;2023-10-13T06:48:26;19.40;;;10.23;;
6406;SDS011;3236;51.022;6.818;2023-10-13T06:50:58;25.98;;;10.93;;
6406;SDS011;3236;51.022;6.818;2023-10-13T06:56:03;23.73;;;9.98;;
6406;SDS011;3236;51.022;6.818;2023-10-13T06:58:34;21.75;;;10.25;;
6406;SDS011;3236;51.022;6.818;2023-10-13T07:01:06;28.27;;;11.48;;
6406;SDS011;3236;51.022;6.818;2023-10-13T07:03:40;28.42;;;11.13;;
6406;SDS011;3236;51.022;6.818;2023-10-13T07:06:07;28.98;;;10.88;;
6406;SDS011;3236;51.022;6.818;2023-10-13T07:08:37;23.10;;;10.73;;
6406;SDS011;3236;51.022;6.818;2023-10-13T07:11:08;26.27;;;9.98;;
6406;SDS011;3236;51.022;6.818;2023-10-13T07:13:43;27.90;;;10.63;;
6406;SDS011;3236;51.022;6.818;2023-10-13T07:16:15;19.45;;;8.93;;
6406;SDS011;3236;51.022;6.818;2023-10-13T07:18:44;26.20;;;10.38;;
6406;SDS011;3236;51.022;6.818;2023-10-13T07:21:18;22.25;;;9.38;;
6406;SDS011;3236;51.022;6.818;2023-10-13T07:26:27;22.48;;;8.68;;
6406;SDS011;3236;51.022;6.818;2023-10-13T07:28:55;14.02;;;8.20;;
6406;SDS011;3236;51.022;6.818;2023-10-13T07:31:23;14.88;;;8.15;;
6406;SDS011;3236;51.022;6.818;2023-10-13T07:33:55;22.23;;;9.00;;
6406;SDS011;3236;51.022;6.818;2023-10-13T07:36:33;18.92;;;8.52;;
6406;SDS011;3236;51.022;6.818;2023-10-13T07:39:04;21.27;;;8.52;;
6406;SDS011;3236;51.022;6.818;2023-10-13T07:41:47;18.55;;;7.65;;
6406;SDS011;3236;51.022;6.818;2023-10-13T07:44:20;20.33;;;8.63;;
6406;SDS011;3236;51.022;6.818;2023-10-13T07:46:50;23.35;;;7.60;;
6406;SDS011;3236;51.022;6.818;2023-10-13T07:49:26;17.63;;;8.23;;
6406;SDS011;3236;51.022;6.818;2023-10-13T07:51:57;20.02;;;8.27;;
6406;SDS011;3236;51.022;6.818;2023-10-13T07:54:41;21.48;;;8.55;;
6406;SDS011;3236;51.022;6.818;2023-10-13T07:57:14;17.10;;;7.35;;
6406;SDS011;3236;51.022;6.818;2023-10-13T07:59:42;19.45;;;8.65;;
6406;SDS011;3236;51.022;6.818;2023-10-13T08:02:16;22.20;;;8.15;;
6406;SDS011;3236;51.022;6.818;2023-10-13T08:04:57;20.73;;;7.97;;
6406;SDS011;3236;51.022;6.818;2023-10-13T08:07:25;30.42;;;8.52;;
6406;SDS011;3236;51.022;6.818;2023-10-13T08:09:53;19.08;;;7.35;;
6406;SDS011;3236;51.022;6.818;2023-10-13T08:12:24;15.88;;;7.55;;
6406;SDS011;3236;51.022;6.818;2023-10-13T08:14:52;15.35;;;6.65;;
6406;SDS011;3236;51.022;6.818;2023-10-13T08:17:35;17.92;;;7.35;;
6406;SDS011;3236;51.022;6.818;2023-10-13T08:20:03;21.30;;;7.63;;
6406;SDS011;3236;51.022;6.818;2023-10-13T08:22:37;25.02;;;8.50;;
6406;SDS011;3236;51.022;6.818;2023-10-13T08:25:05;16.58;;;7.45;;
6406;SDS011;3236;51.022;6.818;2023-10-13T08:27:47;18.47;;;8.00;;
6406;SDS011;3236;51.022;6.818;2023-10-13T08:30:44;17.27;;;7.25;;
6406;SDS011;3236;51.022;6.818;2023-10-13T08:33:19;21.45;;;8.02;;
6406;SDS011;3236;51.022;6.818;2023-10-13T08:35:52;15.18;;;7.43;;
6406;SDS011;3236;51.022;6.818;2023-10-13T08:38:43;20.20;;;6.80;;
6406;SDS011;3236;51.022;6.818;2023-10-13T08:41:17;25.88;;;6.97;;
6406;SDS011;3236;51.022;6.818;2023-10-13T08:44:04;16.80;;;7.53;;
6406;SDS011;3236;51.022;6.818;2023-10-13T08:46:36;15.63;;;6.57;;
6406;SDS011;3236;51.022;6.818;2023-10-13T08:49:30;19.98;;;8.25;;
6406;SDS011;3236;51.022;6.818;2023-10-13T08:52:07;28.88;;;8.10;;
6406;SDS011;3236;51.022;6.818;2023-10-13T08:54:57;18.25;;;6.20;;
6406;SDS011;3236;51.022;6.818;2023-10-13T08:58:00;10.80;;;6.97;;
6406;SDS011;3236;51.022;6.818;2023-10-13T09:00:38;18.77;;;6.78;;
6406;SDS011;3236;51.022;6.818;2023-10-13T09:03:39;13.35;;;6.03;;
6406;SDS011;3236;51.022;6.818;2023-10-13T09:06:07;20.67;;;7.70;;
6406;SDS011;3236;51.022;6.818;2023-10-13T09:08:44;23.02;;;7.75;;
6406;SDS011;3236;51.022;6.818;2023-10-13T09:11:33;20.30;;;6.25;;
6406;SDS011;3236;51.022;6.818;2023-10-13T09:14:15;17.40;;;6.65;;
6406;SDS011;3236;51.022;6.818;2023-10-13T09:17:00;12.27;;;5.82;;
6406;SDS011;3236;51.022;6.818;2023-10-13T09:19:47;16.45;;;6.85;;
6406;SDS011;3236;51.022;6.818;2023-10-13T09:22:24;15.65;;;6.07;;
6406;SDS011;3236;51.022;6.818;2023-10-13T09:29:55;16.75;;;5.35;;
6406;SDS011;3236;51.022;6.818;2023-10-13T09:32:23;14.25;;;4.82;;
6406;SDS011;3236;51.022;6.818;2023-10-13T09:34:54;20.65;;;4.60;;
6406;SDS011;3236;51.022;6.818;2023-10-13T09:37:27;13.30;;;4.13;;
6406;SDS011;3236;51.022;6.818;2023-10-13T09:39:54;10.20;;;4.88;;
6406;SDS011;3236;51.022;6.818;2023-10-13T09:42:30;9.20;;;4.75;;
6406;SDS011;3236;51.022;6.818;2023-10-13T09:44:59;14.02;;;4.88;;
6406;SDS011;3236;51.022;6.818;2023-10-13T09:47:29;46.03;;;8.60;;
6406;SDS011;3236;51.022;6.818;2023-10-13T09:50:03;72.80;;;12.20;;
6406;SDS011;3236;51.022;6.818;2023-10-13T09:52:38;12.52;;;5.25;;
6406;SDS011;3236;51.022;6.818;2023-10-13T09:55:15;37.45;;;7.03;;
6406;SDS011;3236;51.022;6.818;2023-10-13T09:57:45;17.77;;;6.18;;
6406;SDS011;3236;51.022;6.818;2023-10-13T10:00:22;21.10;;;5.53;;
6406;SDS011;3236;51.022;6.818;2023-10-13T10:03:01;11.60;;;4.70;;
6406;SDS011;3236;51.022;6.818;2023-10-13T10:05:41;12.93;;;5.82;;
6406;SDS011;3236;51.022;6.818;2023-10-13T10:08:23;15.00;;;4.93;;
6406;SDS011;3236;51.022;6.818;2023-10-13T10:11:13;10.73;;;5.57;;
6406;SDS011;3236;51.022;6.818;2023-10-13T10:13:52;10.13;;;4.75;;
6406;SDS011;3236;51.022;6.818;2023-10-13T10:16:29;12.88;;;5.88;;
6406;SDS011;3236;51.022;6.818;2023-10-13T10:19:12;10.63;;;5.15;;
6406;SDS011;3236;51.022;6.818;2023-10-13T10:21:40;14.00;;;6.22;;
6406;SDS011;3236;51.022;6.818;2023-10-13T10:24:15;11.90;;;5.03;;
6406;SDS011;3236;51.022;6.818;2023-10-13T10:26:50;8.07;;;5.10;;
6406;SDS011;3236;51.022;6.818;2023-10-13T10:29:17;19.55;;;4.53;;
6406;SDS011;3236;51.022;6.818;2023-10-13T10:31:44;12.13;;;4.82;;
6406;SDS011;3236;51.022;6.818;2023-10-13T10:34:13;15.85;;;5.63;;
6406;SDS011;3236;51.022;6.818;2023-10-13T10:36:46;14.77;;;5.40;;
6406;SDS011;3236;51.022;6.818;2023-10-13T10:39:16;28.08;;;5.90;;
6406;SDS011;3236;51.022;6.818;2023-10-13T10:41:44;8.57;;;4.43;;
6406;SDS011;3236;51.022;6.818;2023-10-13T10:44:17;14.65;;;5.70;;
6406;SDS011;3236;51.022;6.818;2023-10-13T10:47:08;12.35;;;4.38;;
6406;SDS011;3236;51.022;6.818;2023-10-13T10:49:37;10.82;;;5.13;;
6406;SDS011;3236;51.022;6.818;2023-10-13T10:52:06;11.90;;;4.40;;
6406;SDS011;3236;51.022;6.818;2023-10-13T10:54:43;10.40;;;4.95;;
6406;SDS011;3236;51.022;6.818;2023-10-13T10:57:20;17.92;;;6.40;;
6406;SDS011;3236;51.022;6.818;2023-10-13T10:59:54;12.00;;;5.32;;
6406;SDS011;3236;51.022;6.818;2023-10-13T11:02:36;13.57;;;5.40;;
6406;SDS011;3236;51.022;6.818;2023-10-13T11:05:03;9.43;;;4.18;;
6406;SDS011;3236;51.022;6.818;2023-10-13T11:07:33;9.25;;;5.38;;
6406;SDS011;3236;51.022;6.818;2023-10-13T11:10:06;14.00;;;5.10;;
6406;SDS011;3236;51.022;6.818;2023-10-13T11:12:37;17.23;;;5.50;;
6406;SDS011;3236;51.022;6.818;2023-10-13T11:15:06;14.52;;;4.95;;
6406;SDS011;3236;51.022;6.818;2023-10-13T11:17:39;10.38;;;5.22;;
6406;SDS011;3236;51.022;6.818;2023-10-13T11:20:16;14.80;;;4.53;;
6406;SDS011;3236;51.022;6.818;2023-10-13T11:22:59;9.25;;;4.93;;
6406;SDS011;3236;51.022;6.818;2023-10-13T11:25:30;10.40;;;5.03;;
6406;SDS011;3236;51.022;6.818;2023-10-13T11:28:09;10.30;;;4.30;;
6406;SDS011;3236;51.022;6.818;2023-10-13T11:30:44;12.35;;;4.15;;
6406;SDS011;3236;51.022;6.818;2023-10-13T11:33:14;14.10;;;5.40;;
6406;SDS011;3236;51.022;6.818;2023-10-13T11:35:48;15.32;;;5.40;;
6406;SDS011;3236;51.022;6.818;2023-10-13T11:38:25;11.55;;;5.47;;
6406;SDS011;3236;51.022;6.818;2023-10-13T11:40:54;9.05;;;3.75;;
6406;SDS011;3236;51.022;6.818;2023-10-13T11:43:33;12.80;;;5.38;;
6406;SDS011;3236;51.022;6.818;2023-10-13T11:46:17;18.60;;;5.10;;
6406;SDS011;3236;51.022;6.818;2023-10-13T11:49:06;15.48;;;5.05;;
6406;SDS011;3236;51.022;6.818;2023-10-13T11:51:43;9.77;;;4.82;;
6406;SDS011;3236;51.022;6.818;2023-10-13T11:54:12;19.95;;;5.18;;
6406;SDS011;3236;51.022;6.818;2023-10-13T11:56:40;16.92;;;5.82;;
6406;SDS011;3236;51.022;6.818;2023-10-13T11:59:07;16.90;;;5.63;;
6406;SDS011;3236;51.022;6.818;2023-10-13T12:01:43;14.02;;;4.40;;
6406;SDS011;3236;51.022;6.818;2023-10-13T12:04:27;12.18;;;4.47;;
6406;SDS011;3236;51.022;6.818;2023-10-13T12:07:09;10.73;;;4.20;;
6406;SDS011;3236;51.022;6.818;2023-10-13T12:09:47;13.70;;;4.15;;
6406;SDS011;3236;51.022;6.818;2023-10-13T12:12:28;12.70;;;4.35;;
6406;SDS011;3236;51.022;6.818;2023-10-13T12:14:56;11.98;;;4.57;;
6406;SDS011;3236;51.022;6.818;2023-10-13T12:17:34;13.43;;;4.43;;
6406;SDS011;3236;51.022;6.818;2023-10-13T12:20:01;11.27;;;4.15;;
6406;SDS011;3236;51.022;6.818;2023-10-13T12:22:30;18.40;;;3.83;;
6406;SDS011;3236;51.022;6.818;2023-10-13T12:25:05;8.70;;;4.53;;
6406;SDS011;3236;51.022;6.818;2023-10-13T12:27:44;16.58;;;4.63;;
6406;SDS011;3236;51.022;6.818;2023-10-13T12:30:13;14.52;;;5.00;;
6406;SDS011;3236;51.022;6.818;2023-10-13T12:32:47;11.82;;;6.80;;
6406;SDS011;3236;51.022;6.818;2023-10-13T12:35:24;12.15;;;5.72;;
6406;SDS011;3236;51.022;6.818;2023-10-13T12:37:55;12.18;;;4.97;;
6406;SDS011;3236;51.022;6.818;2023-10-13T12:40:32;36.45;;;6.30;;
6406;SDS011;3236;51.022;6.818;2023-10-13T12:43:16;15.25;;;4.78;;
6406;SDS011;3236;51.022;6.818;2023-10-13T12:46:00;122.78;;;15.48;;
6406;SDS011;3236;51.022;6.818;2023-10-13T12:48:45;15.18;;;3.55;;
6406;SDS011;3236;51.022;6.818;2023-10-13T12:51:29;24.85;;;5.43;;
6406;SDS011;3236;51.022;6.818;2023-10-13T12:54:17;13.43;;;4.00;;
6406;SDS011;3236;51.022;6.818;2023-10-13T12:56:53;12.65;;;5.80;;
6406;SDS011;3236;51.022;6.818;2023-10-13T12:59:22;13.98;;;5.07;;
6406;SDS011;3236;51.022;6.818;2023-10-13T13:01:51;10.68;;;4.32;;
6406;SDS011;3236;51.022;6.818;2023-10-13T13:04:19;9.77;;;3.88;;
6406;SDS011;3236;51.022;6.818;2023-10-13T13:06:49;8.68;;;3.90;;
6406;SDS011;3236;51.022;6.818;2023-10-13T13:09:18;17.70;;;4.55;;
6406;SDS011;3236;51.022;6.818;2023-10-13T13:11:52;22.70;;;4.97;;
6406;SDS011;3236;51.022;6.818;2023-10-13T13:14:23;12.15;;;4.78;;
6406;SDS011;3236;51.022;6.818;2023-10-13T13:16:54;16.05;;;4.00;;
6406;SDS011;3236;51.022;6.818;2023-10-13T13:19:24;10.32;;;3.90;;
6406;SDS011;3236;51.022;6.818;2023-10-13T13:21:51;8.25;;;4.15;;
6406;SDS011;3236;51.022;6.818;2023-10-13T13:24:19;12.35;;;4.03;;
6406;SDS011;3236;51.022;6.818;2023-10-13T13:26:49;14.50;;;4.60;;
6406;SDS011;3236;51.022;6.818;2023-10-13T13:29:21;12.80;;;4.75;;
6406;SDS011;3236;51.022;6.818;2023-10-13T13:31:50;12.18;;;4.75;;
6406;SDS011;3236;51.022;6.818;2023-10-13T13:34:18;14.75;;;4.03;;
6406;SDS011;3236;51.022;6.818;2023-10-13T13:36:47;13.43;;;4.93;;
6406;SDS011;3236;51.022;6.818;2023-10-13T13:39:18;12.07;;;4.40;;
6406;SDS011;3236;51.022;6.818;2023-10-13T13:41:54;12.75;;;4.28;;
6406;SDS011;3236;51.022;6.818;2023-10-13T13:44:24;11.48;;;5.60;;
6406;SDS011;3236;51.022;6.818;2023-10-13T13:47:03;12.60;;;4.82;;
6406;SDS011;3236;51.022;6.818;2023-10-13T13:49:37;16.02;;;4.72;;
6406;SDS011;3236;51.022;6.818;2023-10-13T13:52:06;13.55;;;4.03;;
6406;SDS011;3236;51.022;6.818;2023-10-13T13:54:34;15.65;;;4.40;;
6406;SDS011;3236;51.022;6.818;2023-10-13T13:57:05;13.50;;;4.63;;
6406;SDS011;3236;51.022;6.818;2023-10-13T13:59:34;17.80;;;5.80;;
6406;SDS011;3236;51.022;6.818;2023-10-13T14:02:02;14.48;;;4.20;;
6406;SDS011;3236;51.022;6.818;2023-10-13T14:04:46;11.23;;;4.53;;
6406;SDS011;3236;51.022;6.818;2023-10-13T14:07:15;17.45;;;4.30;;
6406;SDS011;3236;51.022;6.818;2023-10-13T14:09:45;16.10;;;4.75;;
6406;SDS011;3236;51.022;6.818;2023-10-13T14:14:56;16.90;;;3.85;;
6406;SDS011;3236;51.022;6.818;2023-10-13T14:17:26;13.70;;;4.18;;
6406;SDS011;3236;51.022;6.818;2023-10-13T14:19:55;13.88;;;4.80;;
6406;SDS011;3236;51.022;6.818;2023-10-13T14:22:23;14.70;;;4.28;;
6406;SDS011;3236;51.022;6.818;2023-10-13T14:24:51;12.15;;;4.43;;
6406;SDS011;3236;51.022;6.818;2023-10-13T14:27:20;10.98;;;4.50;;
6406;SDS011;3236;51.022;6.818;2023-10-13T14:29:50;22.73;;;4.47;;
6406;SDS011;3236;51.022;6.818;2023-10-13T14:32:20;10.25;;;4.35;;
6406;SDS011;3236;51.022;6.818;2023-10-13T14:34:52;14.10;;;4.13;;
6406;SDS011;3236;51.022;6.818;2023-10-13T14:37:25;13.77;;;4.05;;
6406;SDS011;3236;51.022;6.818;2023-10-13T14:39:54;14.57;;;4.25;;
6406;SDS011;3236;51.022;6.818;2023-10-13T14:42:23;12.35;;;4.53;;
6406;SDS011;3236;51.022;6.818;2023-10-13T14:44:51;16.08;;;4.10;;
6406;SDS011;3236;51.022;6.818;2023-10-13T14:47:23;15.73;;;4.20;;
6406;SDS011;3236;51.022;6.818;2023-10-13T14:49:53;14.82;;;4.22;;
6406;SDS011;3236;51.022;6.818;2023-10-13T14:52:21;18.52;;;5.10;;
6406;SDS011;3236;51.022;6.818;2023-10-13T14:54:48;17.67;;;5.63;;
6406;SDS011;3236;51.022;6.818;2023-10-13T14:57:20;12.68;;;4.85;;
6406;SDS011;3236;51.022;6.818;2023-10-13T14:59:55;15.82;;;4.15;;
6406;SDS011;3236;51.022;6.818;2023-10-13T15:02:26;16.73;;;5.10;;
6406;SDS011;3236;51.022;6.818;2023-10-13T15:04:53;14.40;;;4.60;;
6406;SDS011;3236;51.022;6.818;2023-10-13T15:07:22;12.73;;;4.05;;
6406;SDS011;3236;51.022;6.818;2023-10-13T15:09:53;13.95;;;4.15;;
6406;SDS011;3236;51.022;6.818;2023-10-13T15:12:22;14.57;;;4.40;;
6406;SDS011;3236;51.022;6.818;2023-10-13T15:14:50;13.55;;;4.57;;
6406;SDS011;3236;51.022;6.818;2023-10-13T15:17:18;12.43;;;4.85;;
6406;SDS011;3236;51.022;6.818;2023-10-13T15:19:53;13.02;;;4.03;;
6406;SDS011;3236;51.022;6.818;2023-10-13T15:24:52;10.05;;;4.38;;
6406;SDS011;3236;51.022;6.818;2023-10-13T15:27:33;8.38;;;4.13;;
6406;SDS011;3236;51.022;6.818;2023-10-13T15:30:06;14.57;;;5.05;;
6406;SDS011;3236;51.022;6.818;2023-10-13T15:32:45;15.23;;;4.03;;
6406;SDS011;3236;51.022;6.818;2023-10-13T15:35:15;12.15;;;4.63;;
6406;SDS011;3236;51.022;6.818;2023-10-13T15:37:42;9.40;;;3.75;;
6406;SDS011;3236;51.022;6.818;2023-10-13T15:40:12;11.60;;;4.60;;
6406;SDS011;3236;51.022;6.818;2023-10-13T15:45:11;12.52;;;4.20;;
6406;SDS011;3236;51.022;6.818;2023-10-13T15:47:45;14.48;;;4.53;;
6406;SDS011;3236;51.022;6.818;2023-10-13T15:50:14;8.68;;;3.70;;
6406;SDS011;3236;51.022;6.818;2023-10-13T15:52:46;11.35;;;4.32;;
6406;SDS011;3236;51.022;6.818;2023-10-13T15:55:13;15.48;;;4.57;;
6406;SDS011;3236;51.022;6.818;2023-10-13T15:57:42;10.70;;;4.32;;
6406;SDS011;3236;51.022;6.818;2023-10-13T16:00:10;9.55;;;3.88;;
6406;SDS011;3236;51.022;6.818;2023-10-13T16:02:53;12.80;;;4.13;;